Time;durP1;ratioP1;P1;durP2;ratioP2;P2;SDS_P1;SDS_P2;PMS_P1;PMS_P2;Temp;Humidity;BMP_temperature;BMP_pressure;BME280_temperature;BME280_humidity;BME280_pressure;Samples;Min_cycle;Max_cycle;Signal;HPM_P1;HPM_P2
2021/12/26 00:05:22;;;;;;;2.13;1.50;;;11.70;42.60;;;;;;20787153;28;20395;-73
2021/12/26 00:15:23;;;;;;;2.55;1.23;;;11.70;42.60;;;;;;20802664;28;20114;-72
2021/12/26 00:25:24;;;;;;;2.38;1.45;;;11.60;42.60;;;;;;20785376;28;20100;-71
2021/12/26 00:35:25;;;;;;;4.10;1.27;;;11.60;42.60;;;;;;20768442;28;20041;-71
2021/12/26 00:45:27;;;;;;;3.10;1.58;;;11.50;42.60;;;;;;20783757;28;20378;-70
2021/12/26 00:55:27;;;;;;;3.17;1.98;;;11.50;42.60;;;;;;20783178;28;20072;-71
2021/12/26 01:05:28;;;;;;;2.53;1.10;;;11.50;42.60;;;;;;20767909;28;20064;-71
2021/12/26 01:15:29;;;;;;;2.47;1.35;;;11.40;42.50;;;;;;20769437;28;20041;-73
2021/12/26 01:25:45;;;;;;;2.85;1.40;;;11.50;42.60;;;;;;20722498;28;20412;-72
2021/12/26 01:35:47;;;;;;;2.47;1.52;;;11.40;42.60;;;;;;20682956;28;20381;-74
2021/12/26 01:45:56;;;;;;;1.77;1.02;;;11.40;42.70;;;;;;20700526;28;20042;-71
2021/12/26 01:55:57;;;;;;;2.28;1.48;;;11.40;42.80;;;;;;20696073;28;20153;-72
2021/12/26 02:05:59;;;;;;;1.67;0.98;;;11.40;42.80;;;;;;20681425;28;20068;-71
2021/12/26 02:16:02;;;;;;;3.17;1.27;;;11.30;42.80;;;;;;20682101;28;20038;-72
2021/12/26 02:36:14;;;;;;;2.42;1.38;;;11.30;42.90;;;;;;20697516;28;20041;-73
2021/12/26 02:46:15;;;;;;;2.25;1.10;;;11.30;42.80;;;;;;20695709;28;20108;-72
2021/12/26 02:56:18;;;;;;;3.63;1.50;;;11.30;42.90;;;;;;20678491;28;20121;-71
2021/12/26 03:06:27;;;;;;;2.97;1.50;;;11.30;42.80;;;;;;20686128;28;20477;-73
2021/12/26 03:16:28;;;;;;;2.38;1.40;;;11.20;42.80;;;;;;20695562;28;20034;-71
2021/12/26 03:26:28;;;;;;;2.72;1.48;;;11.00;42.90;;;;;;20708862;28;20052;-71
2021/12/26 03:36:29;;;;;;;2.07;1.20;;;10.80;43.30;;;;;;20736091;28;20164;-70
2021/12/26 03:46:30;;;;;;;2.45;1.08;;;10.60;43.70;;;;;;20772198;28;20292;-73
2021/12/26 03:56:31;;;;;;;3.90;1.23;;;10.40;44.10;;;;;;20773527;28;20061;-71
2021/12/26 04:06:41;;;;;;;2.15;0.90;;;10.20;44.60;;;;;;20789976;28;20041;-71
2021/12/26 04:16:43;;;;;;;1.10;0.90;;;10.00;44.90;;;;;;20785827;28;20120;-71
2021/12/26 04:26:44;;;;;;;2.95;1.38;;;10.00;45.20;;;;;;20770689;28;20128;-72
2021/12/26 04:36:44;;;;;;;2.15;1.10;;;10.00;45.50;;;;;;20769134;28;20549;-71
2021/12/26 04:46:45;;;;;;;2.60;1.15;;;9.90;45.90;;;;;;20785237;28;20045;-71
2021/12/26 04:56:55;;;;;;;3.28;1.45;;;9.90;45.80;;;;;;20771713;28;20033;-71
2021/12/26 05:06:56;;;;;;;2.37;1.30;;;9.90;46.00;;;;;;20782690;28;20132;-74
2021/12/26 05:16:58;;;;;;;3.67;1.45;;;10.20;45.60;;;;;;20782078;28;20654;-72
2021/12/26 05:26:59;;;;;;;3.65;0.98;;;11.60;43.20;;;;;;20782104;28;20056;-71
2021/12/26 05:37:00;;;;;;;2.55;0.90;;;12.90;40.80;;;;;;20765129;28;20621;-70
2021/12/26 05:47:01;;;;;;;1.60;1.00;;;14.10;38.90;;;;;;20765530;28;20099;-72
2021/12/26 05:57:09;;;;;;;1.33;0.77;;;15.20;36.70;;;;;;20780162;28;20090;-72
2021/12/26 06:07:10;;;;;;;1.17;0.93;;;16.00;35.10;;;;;;20761720;28;20034;-70
2021/12/26 06:17:11;;;;;;;3.13;1.10;;;16.20;34.20;;;;;;20777424;28;20642;-71
2021/12/26 06:27:47;;;;;;;3.55;1.85;;;16.40;33.70;;;;;;20790766;28;20046;-71
2021/12/26 06:38:16;;;;;;;2.40;1.13;;;16.60;33.20;;;;;;20799336;28;20060;-71
2021/12/26 06:48:41;;;;;;;2.15;1.25;;;15.90;33.90;;;;;;20796956;28;20121;-72
2021/12/26 06:58:43;;;;;;;2.05;1.30;;;14.80;35.30;;;;;;20791404;28;20521;-73
2021/12/26 07:08:44;;;;;;;3.60;1.30;;;13.70;36.70;;;;;;20792222;28;20116;-73
2021/12/26 07:18:45;;;;;;;2.50;1.10;;;12.90;38.00;;;;;;20743581;28;20030;-72
2021/12/26 07:28:50;;;;;;;1.85;1.15;;;12.40;38.90;;;;;;20775897;28;20077;-74
2021/12/26 07:38:59;;;;;;;2.13;0.85;;;12.00;39.70;;;;;;20776402;28;20202;-70
2021/12/26 07:49:03;;;;;;;1.73;1.10;;;11.80;40.30;;;;;;20792620;28;20044;-71
2021/12/26 07:59:22;;;;;;;2.03;0.73;;;11.60;40.60;;;;;;20824024;28;20026;-71
2021/12/26 08:09:41;;;;;;;1.73;0.93;;;11.50;40.80;;;;;;20823500;28;20492;-73
2021/12/26 08:19:42;;;;;;;2.45;1.10;;;11.40;41.20;;;;;;20770559;28;20501;-71
2021/12/26 08:29:43;;;;;;;2.05;0.90;;;11.30;41.60;;;;;;20801886;28;20136;-70
2021/12/26 08:39:44;;;;;;;1.45;0.90;;;11.10;42.50;;;;;;20768584;28;20038;-71
2021/12/26 08:49:44;;;;;;;0.85;0.57;;;11.00;42.30;;;;;;20784352;28;20421;-72
2021/12/26 08:59:45;;;;;;;1.98;1.02;;;10.80;42.80;;;;;;20783051;28;20048;-72
2021/12/26 09:09:48;;;;;;;1.85;0.75;;;10.60;43.20;;;;;;20782596;28;20047;-72
2021/12/26 09:19:49;;;;;;;2.30;0.95;;;10.40;43.70;;;;;;20766240;28;20396;-71
2021/12/26 09:29:49;;;;;;;1.43;0.90;;;10.40;44.10;;;;;;20782946;28;20087;-74
2021/12/26 09:39:50;;;;;;;2.58;1.05;;;10.30;44.30;;;;;;20780314;28;20697;-74
2021/12/26 09:49:50;;;;;;;4.30;1.10;;;10.30;44.60;;;;;;20779581;28;20045;-72
2021/12/26 09:59:51;;;;;;;1.77;0.90;;;10.20;44.80;;;;;;20779137;28;20375;-72
2021/12/26 10:09:52;;;;;;;1.88;1.27;;;10.20;45.00;;;;;;20778961;28;20052;-71
2021/12/26 10:20:00;;;;;;;2.20;0.90;;;10.00;45.30;;;;;;20776770;28;20107;-73
2021/12/26 10:30:02;;;;;;;1.88;0.88;;;9.90;46.30;;;;;;20778102;28;20045;-71
2021/12/26 10:40:31;;;;;;;3.50;0.90;;;9.80;46.00;;;;;;20759802;28;20040;-74
2021/12/26 10:50:41;;;;;;;2.75;1.20;;;9.70;46.40;;;;;;20794658;28;20156;-74
2021/12/26 11:00:43;;;;;;;1.35;0.75;;;9.60;46.70;;;;;;20808006;28;20041;-71
2021/12/26 11:10:51;;;;;;;1.42;0.63;;;9.50;46.90;;;;;;20775098;28;20041;-70
2021/12/26 11:20:57;;;;;;;0.93;0.60;;;10.00;46.30;;;;;;20775287;28;20041;-71
2021/12/26 11:30:59;;;;;;;1.65;0.82;;;11.70;43.70;;;;;;21091933;22;20046;-73
2021/12/26 11:41:05;;;;;;;1.60;0.85;;;13.20;40.90;;;;;;20659465;28;20081;-73
2021/12/26 11:51:37;;;;;;;1.70;0.85;;;13.80;39.30;;;;;;20663723;28;20038;-73
2021/12/26 12:02:12;;;;;;;1.57;1.00;;;13.20;39.90;;;;;;20663100;28;20065;-72
2021/12/26 12:12:14;;;;;;;1.92;0.90;;;12.40;40.90;;;;;;20673498;28;20034;-72
2021/12/26 12:22:15;;;;;;;2.13;1.25;;;11.80;42.00;;;;;;20657244;28;20038;-72
2021/12/26 12:32:17;;;;;;;2.53;1.02;;;11.40;42.80;;;;;;20657410;28;20473;-72
2021/12/26 12:42:17;;;;;;;2.97;0.73;;;11.10;43.30;;;;;;20688837;28;20041;-73
2021/12/26 12:52:40;;;;;;;1.83;0.80;;;11.00;43.70;;;;;;20674072;28;20394;-72
2021/12/26 13:02:41;;;;;;;1.95;1.02;;;11.00;43.90;;;;;;20673207;28;20050;-74
2021/12/26 13:12:42;;;;;;;3.05;1.20;;;10.90;44.00;;;;;;20656373;28;20039;-73
2021/12/26 13:22:56;;;;;;;1.88;1.08;;;10.90;44.20;;;;;;20670894;28;20069;-72
2021/12/26 13:32:56;;;;;;;1.67;0.73;;;10.90;44.20;;;;;;20652763;28;20046;-73
2021/12/26 13:42:57;;;;;;;2.45;1.05;;;10.80;44.30;;;;;;20669049;28;20104;-73
2021/12/26 13:53:03;;;;;;;1.65;1.10;;;10.90;44.40;;;;;;20684630;28;20030;-72
2021/12/26 14:03:06;;;;;;;1.77;0.77;;;10.80;44.40;;;;;;20667449;28;20038;-72
2021/12/26 14:13:09;;;;;;;3.33;1.08;;;10.80;44.50;;;;;;20666687;28;20065;-74
2021/12/26 14:23:16;;;;;;;1.77;1.00;;;11.00;44.20;;;;;;20650931;28;20042;-72
2021/12/26 14:33:16;;;;;;;2.50;1.02;;;11.50;43.70;;;;;;20666158;28;20608;-72
2021/12/26 14:43:17;;;;;;;2.13;1.10;;;11.90;42.80;;;;;;20665035;28;20054;-72
2021/12/26 14:53:17;;;;;;;2.65;1.10;;;12.30;42.00;;;;;;20681927;28;20041;-73
2021/12/26 15:03:22;;;;;;;2.17;1.07;;;12.80;41.10;;;;;;20674712;28;20042;-74
2021/12/26 15:13:23;;;;;;;3.08;1.05;;;12.70;40.90;;;;;;20697015;28;20292;-72
2021/12/26 15:23:35;;;;;;;1.90;1.17;;;12.10;41.80;;;;;;20663231;28;20038;-72
2021/12/26 15:33:46;;;;;;;2.40;1.00;;;11.50;42.60;;;;;;20662535;28;20042;-72
2021/12/26 15:43:47;;;;;;;1.08;0.80;;;11.10;43.30;;;;;;20660264;28;20073;-72
2021/12/26 15:53:47;;;;;;;2.15;1.08;;;12.00;42.30;;;;;;20709613;28;20452;-76
2021/12/26 16:03:48;;;;;;;3.00;1.45;;;13.70;39.50;;;;;;20676081;28;20481;-73
2021/12/26 16:13:49;;;;;;;2.08;1.30;;;15.10;37.10;;;;;;20690597;28;20026;-72
2021/12/26 16:23:49;;;;;;;3.72;1.20;;;15.80;35.60;;;;;;20674481;28;20065;-72
2021/12/26 16:33:50;;;;;;;2.47;1.20;;;16.20;34.70;;;;;;20689728;28;20473;-72
2021/12/26 16:43:51;;;;;;;2.33;1.03;;;16.50;34.10;;;;;;20705295;28;20049;-77
2021/12/26 16:53:51;;;;;;;2.63;1.35;;;16.50;33.70;;;;;;20672728;28;20329;-74
2021/12/26 17:03:52;;;;;;;2.28;1.08;;;15.60;34.80;;;;;;20672126;28;20054;-72
2021/12/26 17:13:52;;;;;;;2.80;1.25;;;14.60;36.20;;;;;;20687102;28;20030;-72
2021/12/26 17:23:53;;;;;;;2.10;0.93;;;13.70;37.70;;;;;;20669647;28;20738;-72
2021/12/26 17:33:53;;;;;;;1.77;1.10;;;13.00;38.90;;;;;;20685200;28;20297;-73
2021/12/26 17:43:54;;;;;;;4.72;1.83;;;12.50;39.80;;;;;;20667479;28;20042;-73
2021/12/26 17:53:55;;;;;;;4.40;1.10;;;12.30;40.40;;;;;;20651418;28;20632;-77
2021/12/26 18:03:55;;;;;;;3.80;1.17;;;12.20;40.70;;;;;;20649359;28;20481;-74
2021/12/26 18:13:56;;;;;;;2.53;1.20;;;12.20;40.80;;;;;;20647879;28;20058;-73
2021/12/26 18:23:56;;;;;;;2.70;1.20;;;12.20;40.80;;;;;;20630781;28;20050;-72
2021/12/26 18:33:57;;;;;;;3.63;1.40;;;12.20;40.80;;;;;;20629355;28;20077;-72
2021/12/26 18:43:58;;;;;;;3.10;1.23;;;12.20;40.80;;;;;;20645905;28;20046;-75
2021/12/26 18:54:01;;;;;;;2.90;1.85;;;12.30;40.80;;;;;;20629891;28;20031;-72
2021/12/26 19:04:02;;;;;;;3.83;1.45;;;12.20;40.80;;;;;;20629917;28;20124;-73
2021/12/26 19:14:03;;;;;;;2.55;1.42;;;12.30;40.90;;;;;;20644989;28;20068;-73
2021/12/26 19:24:04;;;;;;;2.67;1.25;;;12.20;40.90;;;;;;20612661;28;20101;-73
2021/12/26 19:34:05;;;;;;;5.30;1.35;;;12.30;40.90;;;;;;20661449;28;20034;-73
2021/12/26 19:44:06;;;;;;;2.67;1.50;;;12.30;40.90;;;;;;20628397;28;20038;-73
2021/12/26 19:54:07;;;;;;;2.05;1.23;;;12.20;41.00;;;;;;20642120;28;20057;-73
2021/12/26 20:04:12;;;;;;;2.50;1.30;;;12.30;41.10;;;;;;20625427;28;20065;-73
2021/12/26 20:14:12;;;;;;;2.05;1.23;;;12.20;41.10;;;;;;20656325;28;20034;-74
2021/12/26 20:24:14;;;;;;;2.80;1.33;;;12.20;41.20;;;;;;20648717;28;20042;-74
2021/12/26 20:34:15;;;;;;;2.53;1.10;;;12.20;41.30;;;;;;20656016;28;20054;-73
2021/12/26 20:44:16;;;;;;;5.15;1.80;;;12.10;41.30;;;;;;20654561;28;20034;-72
2021/12/26 20:54:17;;;;;;;3.38;1.77;;;12.10;41.40;;;;;;20654074;28;20057;-72
2021/12/26 21:04:17;;;;;;;5.13;1.58;;;12.10;41.40;;;;;;20636172;28;20068;-72
2021/12/26 21:14:18;;;;;;;4.32;1.50;;;12.10;41.60;;;;;;20652397;28;20104;-76
2021/12/26 21:24:19;;;;;;;2.53;1.45;;;12.10;41.70;;;;;;20619391;28;20042;-73
2021/12/26 21:34:20;;;;;;;3.63;1.70;;;12.00;41.70;;;;;;20650805;28;20636;-72
2021/12/26 21:44:21;;;;;;;2.28;1.33;;;12.00;41.80;;;;;;20633727;28;20031;-75
2021/12/26 21:54:21;;;;;;;3.97;1.50;;;11.90;41.80;;;;;;20634130;28;20045;-73
2021/12/26 22:04:22;;;;;;;3.38;1.55;;;12.00;42.00;;;;;;20664769;28;20317;-73
2021/12/26 22:14:22;;;;;;;4.72;1.70;;;11.90;42.00;;;;;;20616375;28;20092;-73
2021/12/26 22:24:23;;;;;;;4.22;1.77;;;11.90;42.00;;;;;;20631614;28;20034;-74
2021/12/26 22:34:24;;;;;;;4.45;1.48;;;11.90;42.10;;;;;;20645365;28;20085;-73
2021/12/26 22:44:28;;;;;;;3.33;1.50;;;11.80;42.10;;;;;;20613979;28;20210;-77
2021/12/26 22:54:29;;;;;;;3.33;1.52;;;11.80;42.20;;;;;;20645824;28;20034;-76
2021/12/26 23:04:29;;;;;;;4.18;1.92;;;11.70;42.20;;;;;;20630099;28;20493;-72
2021/12/26 23:14:30;;;;;;;6.10;1.67;;;11.80;42.30;;;;;;20629522;28;20034;-73
2021/12/26 23:24:30;;;;;;;3.65;1.92;;;11.70;42.30;;;;;;20654375;28;20301;-73
2021/12/26 23:34:31;;;;;;;3.65;1.75;;;11.70;42.40;;;;;;20676004;28;20050;-72
2021/12/26 23:44:36;;;;;;;5.07;1.90;;;11.60;43.20;;;;;;20659652;28;20420;-72
2021/12/26 23:54:38;;;;;;;3.97;1.95;;;11.60;42.60;;;;;;20627699;28;20041;-73
